EYKA

Kaunas International Airport

Airport
ICAO code
EYKA
IATA Code
KUN
Summary
ICAO Region
EUR
ICAO Territory
Location

Karmėlava, Trakai

Serving
Kaunas
Elevation
256 ft
Coordinates
54° 57' 53" N , 24° 4' 30" E
KCC
Dfb
Metar
Observation
EYKA 120220Z 00000KT CAVOK 13/10 Q1025
Station
Kaunas
Date/Time
2022-08-12 02:20:00
Wind direction
Wind speed
00 kts
Lowest cloud amount
clouds and visibility OK
Temperature
13°C
Dew point
10°C
Humidity
82%
QNH
1025 hPa
Weather condition
n/a

Kaunas International Airport, Kaunas, Lithuania is the second busiest civil airport in Lithuania after Vilnius Airport.

Climatology

Humid continental climate (Köppen climate classification Dfb)

Runways

Designator Length Width Surface Rops
8/26 3150 45 ASP Yes/Yes

Airport map

Aerial View

SKYbrary Partners:

Safety knowledge contributed by: